Portada
METAR-TAF:

METAR-TAF

Aeroports :

Pointe-à-Pitre, Guadalupe

latitud: 16-16N, longitud: 061-31W, altitud: 11 m

Observació

L'informe es va fer fa 27 minuts, a les 15:30 UTC
Vent 8 kt del Est, variant entre Nord-Est i Est/Sud-Est
Temperatura 31°C
Humitat 63%
Pressió 1013 hPa
Visibilitat 10 km o més
Núvols disperses a una alçada de 3600 ft
Núvols disperses a una alçada de 4700 ft

METAR: TFFR 231530Z AUTO 08008KT 050V120 9999 SCT036 SCT047 31/23 Q1013 NOSIG

Hora: 11:57 (15:57 UTC)

Pronòstic

L'informe es va fer fa 4 hores i 57 minuts, a les 11:00 UTC
Pronòstic vàlid del 23 a les 12 UTC al 24 a les 12 UTC
Vent 3 kt amb direcció variable
Visibilitat 10 km o més
Núvols disperses a una alçada de 2500 ft
Probabilitat 30% :
Temporalment
l' 23 a les 18 UTC al 24 a les 12 UTC
Visibilitat: 4000 m
Núvols disperses a una alçada de 1500 ft, Cumulus congestus.
xàfecs de pluja

TAF: TFFR 231100Z 2312/2412 VRB03KT 9999 SCT025 PROB30 TEMPO 2318/2412 4000 SHRA SCT015TCU

Observacions i pronòstics meteorològics de més de 4000 aeroports (METAR i TAF).

Les estacions disponibles són els punts grocs i vermells al mapa.

Posi el ratolí al punt desitjat per veure el nom de l'estació.

Feu clic per veure les observacions i els pronòstics meteorològics.

Per canviar el mapa: feu clic els botons verds amb una creu de color negre per apropar; al botó verd amb un guió per allunyar la imatge; o en les fletxes verdes per a mapes adjacents.


METAR-TAF: